Carnival Splendor — 3EUS — position and weather

sailwx.info

Track history (hours):
 
Tides and Currents Weather Stations Pressure Air Temp Water Temp Dewpoint Dewpoint Depression Visibility Wind Speed Wind Dir Waves Ship Positions

Carnival Splendor

Last reported at 2015-Mar-03 12:00 UTC. Time now 2015-Mar-06 00:09 UTC.
Position N 23°06' W 072°24'.

Length 289 m; draft 8.3 m.

Type: Ship. MMSI: 372808000.

Wind from 060 at 22 knots

Waves 3.0 meters (10 feet), 2 second period

Barometer 1020.0 mb
Air temperature 24.0 ° C
Visibility: greater than 27.0 NM
Dewpoint 18.0 ° C
Water temperature 26.0 ° C

Date/timePositionNaut miles runAvg speedWind from/ knotsBaromVisibWave heightAir tempDewpointWater temp
2015-Mar-03 12:00N 23°06' W 072°24'16320.4 060 / 221020.027.0 3.024.018.026.0
2015-Mar-03 04:00N 24°42' W 074°48'254 9.9 060 / 251022.010.8 24.020.026.0
2015-Mar-02 02:26N 26°15' W 079°10'1416.3
2015-Mar-02 01:33N 26°07' W 079°24'1616.3
2015-Mar-02 00:33N 25°60' W 079°40'1616.5
2015-Mar-01 23:33N 25°51' W 079°55'1212.0
2015-Mar-01 22:33N 25°45' W 080°07'3 2.7
2015-Mar-01 21:26N 25°47' W 080°10'0 0.0
2015-Mar-01 20:32N 25°47' W 080°10'0 0.0
2015-Mar-01 19:25N 25°47' W 080°10'0 0.0
2015-Mar-01 18:31N 25°47' W 080°10'0 0.0
2015-Mar-01 17:30N 25°47' W 080°10'0 0.0
2015-Mar-01 16:33N 25°47' W 080°10'0 0.0
2015-Mar-01 15:30N 25°47' W 080°10'0 0.0
2015-Mar-01 14:23N 25°47' W 080°10'0 0.0
2015-Mar-01 13:32N 25°47' W 080°10'0 0.0
2015-Mar-01 12:28N 25°47' W 080°10'1 0.9
2015-Mar-01 11:33N 25°46' W 080°09'10 9.6
2015-Mar-01 10:33N 25°44' W 079°59'1413.0
2015-Mar-01 09:28N 25°30' W 079°57'17218.1
2015-Mar-01 00:00N 23°30' W 082°12'   130 / 241020.027.0 2.025.022.026.0
2015-Feb-24 23:14N 20°23' W 087°04'811.7
2015-Feb-24 22:32N 20°29' W 086°59'1 0.8
2015-Feb-24 21:30N 20°29' W 086°59'0 0.0
2015-Feb-24 20:30N 20°29' W 086°59'0 0.0
2015-Feb-24 19:29N 20°29' W 086°59'0 0.0
2015-Feb-24 18:26N 20°29' W 086°59'0 0.0
2015-Feb-24 17:25N 20°29' W 086°59'0 0.0
2015-Feb-24 16:31N 20°29' W 086°59'0 0.0
2015-Feb-24 15:30N 20°29' W 086°59'0 0.0
2015-Feb-24 14:30N 20°29' W 086°59'0 0.0
2015-Feb-24 13:30N 20°29' W 086°59'0 0.0
2015-Feb-24 12:33N 20°29' W 086°59'6 5.6
2015-Feb-24 11:32N 20°34' W 086°57'31413.3
2015-Feb-23 12:00N 23°24' W 082°12'403 9.4 150 / 151020.027.0 1.025.0 7.026.0
2015-Feb-21 17:00N 24°48' W 075°00'8517.0 090 / 301025.010.8 3.022.017.026.0
2015-Feb-21 12:00N 23°54' W 073°48'   050 / 301024.027.0 4.021.0 9.024.0
Track history (hours):
 
Tides and Currents Weather Stations Pressure Air Temp Water Temp Dewpoint Dewpoint Depression Visibility Wind Speed Wind Dir Waves Ship Positions

Carnival Splendor

Last reported at 2015-Mar-03 12:00 UTC. Time now 2015-Mar-06 00:09 UTC.
Position N 23°06' W 072°24'.

Length 289 m; draft 8.3 m.

Type: Ship. MMSI: 372808000.

Wind from 060 at 22 knots

Waves 3.0 meters (10 feet), 2 second period

Barometer 1020.0 mb
Air temperature 24.0 ° C
Visibility: greater than 27.0 NM
Dewpoint 18.0 ° C
Water temperature 26.0 ° C

Date/timePositionNaut miles runAvg speedWind from/ knotsBaromVisibWave heightAir tempDewpointWater temp
2015-Mar-03 12:00N 23°06' W 072°24'16320.4 060 / 221020.027.0 3.024.018.026.0
2015-Mar-03 04:00N 24°42' W 074°48'254 9.9 060 / 251022.010.8 24.020.026.0
2015-Mar-02 02:26N 26°15' W 079°10'1416.3
2015-Mar-02 01:33N 26°07' W 079°24'1616.3
2015-Mar-02 00:33N 25°60' W 079°40'1616.5
2015-Mar-01 23:33N 25°51' W 079°55'1212.0
2015-Mar-01 22:33N 25°45' W 080°07'3 2.7
2015-Mar-01 21:26N 25°47' W 080°10'0 0.0
2015-Mar-01 20:32N 25°47' W 080°10'0 0.0
2015-Mar-01 19:25N 25°47' W 080°10'0 0.0
2015-Mar-01 18:31N 25°47' W 080°10'0 0.0
2015-Mar-01 17:30N 25°47' W 080°10'0 0.0
2015-Mar-01 16:33N 25°47' W 080°10'0 0.0
2015-Mar-01 15:30N 25°47' W 080°10'0 0.0
2015-Mar-01 14:23N 25°47' W 080°10'0 0.0
2015-Mar-01 13:32N 25°47' W 080°10'0 0.0
2015-Mar-01 12:28N 25°47' W 080°10'1 0.9
2015-Mar-01 11:33N 25°46' W 080°09'10 9.6
2015-Mar-01 10:33N 25°44' W 079°59'1413.0
2015-Mar-01 09:28N 25°30' W 079°57'17218.1
2015-Mar-01 00:00N 23°30' W 082°12'   130 / 241020.027.0 2.025.022.026.0
2015-Feb-24 23:14N 20°23' W 087°04'811.7
2015-Feb-24 22:32N 20°29' W 086°59'1 0.8
2015-Feb-24 21:30N 20°29' W 086°59'0 0.0
2015-Feb-24 20:30N 20°29' W 086°59'0 0.0
2015-Feb-24 19:29N 20°29' W 086°59'0 0.0
2015-Feb-24 18:26N 20°29' W 086°59'0 0.0
2015-Feb-24 17:25N 20°29' W 086°59'0 0.0
2015-Feb-24 16:31N 20°29' W 086°59'0 0.0
2015-Feb-24 15:30N 20°29' W 086°59'0 0.0
2015-Feb-24 14:30N 20°29' W 086°59'0 0.0
2015-Feb-24 13:30N 20°29' W 086°59'0 0.0
2015-Feb-24 12:33N 20°29' W 086°59'6 5.6
2015-Feb-24 11:32N 20°34' W 086°57'31413.3
2015-Feb-23 12:00N 23°24' W 082°12'403 9.4 150 / 151020.027.0 1.025.0 7.026.0
2015-Feb-21 17:00N 24°48' W 075°00'8517.0 090 / 301025.010.8 3.022.017.026.0
2015-Feb-21 12:00N 23°54' W 073°48'   050 / 301024.027.0 4.021.0 9.024.0

Dump ship's entire track history